KALO/ALO METAR and TAF weather

Enter ICAO airport designator
Station Type Date Time Source
KALO METAR 2021/05/15 22:54 UTC NOAA

KALO 152254Z 18008KT 10SM FEW055 FEW070 SCT110 17/15 A3003 RMK AO2 RAE46 SLP168 P0007 T01720150


Station Type Date Time Source
KALO Decoded METAR 2021/05/15 22:54 UTC NOAA

WATERLOO MUNICIPAL AIRPORT, IA, United States (KALO) 42-33N 92-24W 264M
May 15, 2021 - 06:54 PM EDT / 2021.05.15 2254 UTC
Wind: from the S (180 degrees) at 9 MPH (8 KT):0
Visibility: 10 mile(s):0
Sky conditions: partly cloudy
Precipitation last hour: 0.07 inches
Temperature: 63.0 F (17.2 C)
Dew Point: 59.0 F (15.0 C)
Relative Humidity: 86%
Pressure (altimeter): 30.03 in. Hg (1016 hPa)
ob: KALO 152254Z 18008KT 10SM FEW055 FEW070 SCT110 17/15 A3003 RMK AO2 RAE46 SLP168 P0007 T01720150
cycle: 23

Station Type Date Time Source
KALO TAF 2021/05/15 22:39 UTC NOAA

TAF
AMD KALO 152136Z 1522/1618 14010G17KT P6SM -RA VCTS FEW050CB BKN070 OVC100
FM160200 16007KT P6SM BKN120
FM160800 VRB03KT 2SM BR BKN060
FM161400 14005KT P6SM BKN040

Example: see airport list